createdAt,value
2018-06-15T05:04:26.087Z,60.44
2018-06-15T05:09:36.603Z,60.38
2018-06-15T05:14:39.942Z,60.19
2018-06-15T05:19:43.447Z,59.92
2018-06-15T05:24:46.787Z,59.36
2018-06-15T05:29:50.806Z,58.87
2018-06-15T05:34:54.126Z,58.50
2018-06-15T05:39:57.475Z,58.28
2018-06-15T05:45:00.807Z,58.31
2018-06-15T05:50:16.751Z,58.63
2018-06-15T05:55:20.090Z,58.73
2018-06-15T06:00:24.183Z,58.78
2018-06-15T06:05:27.508Z,58.91
2018-06-15T06:10:30.846Z,58.78
2018-06-15T06:15:34.937Z,58.77
2018-06-15T06:20:38.276Z,58.26
2018-06-15T06:25:41.754Z,58.08
2018-06-15T06:30:45.103Z,57.78
2018-06-15T06:35:49.211Z,57.54
2018-06-15T06:40:52.550Z,57.31
2018-06-15T06:45:55.895Z,56.84
2018-06-15T06:50:59.999Z,56.38
2018-06-15T06:56:04.095Z,54.74
2018-06-15T07:01:07.425Z,54.85
2018-06-15T07:06:10.824Z,53.98
2018-06-15T07:11:14.128Z,51.86
2018-06-15T07:16:17.455Z,50.52
2018-06-15T07:21:20.809Z,49.02
2018-06-15T07:26:24.918Z,48.68
2018-06-15T07:31:29.006Z,45.40
2018-06-15T07:36:32.335Z,47.52
2018-06-15T07:41:35.673Z,46.81
2018-06-15T07:46:39.012Z,43.66
2018-06-15T07:51:42.338Z,45.30
2018-06-15T07:56:45.676Z,45.24
2018-06-15T08:01:49.016Z,45.06
2018-06-15T08:06:52.345Z,45.24
2018-06-15T08:11:56.459Z,45.56
2018-06-15T08:16:59.959Z,45.64
2018-06-15T08:22:03.304Z,45.10
2018-06-15T08:27:06.644Z,44.87
2018-06-15T08:32:10.019Z,44.15
2018-06-15T08:37:13.367Z,44.10
2018-06-15T08:42:17.521Z,43.81
2018-06-15T08:47:21.624Z,42.30
2018-06-15T08:52:25.723Z,43.32
2018-06-15T08:57:29.083Z,42.42
2018-06-15T09:02:32.458Z,42.38
2018-06-15T09:07:35.798Z,41.62
2018-06-15T09:12:39.254Z,42.23
2018-06-15T09:17:42.610Z,42.23
2018-06-15T09:22:46.746Z,41.52
2018-06-15T09:27:51.139Z,41.96
2018-06-15T09:32:54.482Z,41.42
2018-06-15T09:37:57.810Z,42.16
2018-06-15T09:43:01.904Z,41.75
2018-06-15T09:48:05.255Z,42.04
2018-06-15T09:53:08.610Z,42.15
2018-06-15T09:58:11.938Z,41.93
2018-06-15T10:03:15.261Z,41.20
2018-06-15T10:08:19.050Z,40.64
2018-06-15T10:13:22.679Z,40.78
2018-06-15T10:18:26.044Z,39.85
2018-06-15T10:23:30.150Z,40.61
2018-06-15T10:28:33.487Z,40.06
2018-06-15T10:33:37.781Z,40.01
2018-06-15T10:38:41.106Z,39.81
2018-06-15T10:43:44.447Z,40.37
2018-06-15T10:48:48.551Z,39.00
2018-06-15T10:53:51.887Z,39.96
2018-06-15T10:58:55.991Z,39.18
2018-06-15T11:03:59.320Z,39.54
2018-06-15T11:09:02.677Z,39.39
2018-06-15T11:14:05.992Z,38.49
2018-06-15T11:19:09.331Z,38.93
2018-06-15T11:24:12.663Z,39.25
2018-06-15T11:29:16.001Z,37.70
2018-06-15T11:34:20.090Z,37.77
2018-06-15T11:39:23.411Z,38.43
2018-06-15T11:44:26.758Z,38.11
2018-06-15T11:49:31.033Z,38.02
2018-06-15T11:54:34.659Z,36.41
2018-06-15T11:59:38.094Z,35.58
2018-06-15T12:04:41.459Z,36.31
2018-06-15T12:09:44.806Z,35.74
2018-06-15T12:14:48.131Z,35.32
2018-06-15T12:19:51.461Z,35.01
2018-06-15T12:24:54.792Z,34.88
2018-06-15T12:29:58.887Z,34.18
2018-06-15T12:35:02.244Z,33.86
2018-06-15T12:40:05.570Z,34.55
2018-06-15T12:45:08.927Z,33.88
2018-06-15T12:50:13.016Z,33.28
2018-06-15T12:55:16.379Z,32.94
2018-06-15T13:00:19.862Z,34.65
2018-06-15T13:05:23.227Z,33.66
2018-06-15T13:10:27.317Z,33.31
2018-06-15T13:15:30.662Z,33.53
2018-06-15T13:20:34.767Z,33.02
2018-06-15T13:25:39.739Z,32.03
2018-06-15T13:30:43.078Z,30.96
2018-06-15T13:35:47.191Z,30.85
2018-06-15T13:40:50.663Z,31.25
2018-06-15T13:45:54.022Z,30.98
2018-06-15T13:50:58.314Z,30.48
2018-06-15T13:56:01.653Z,30.16
2018-06-15T14:01:04.999Z,29.57
2018-06-15T14:06:08.332Z,29.32
2018-06-15T14:11:11.667Z,28.64
2018-06-15T14:16:15.015Z,27.88
2018-06-15T14:21:19.138Z,26.69
2018-06-15T14:26:22.734Z,27.52
2018-06-15T14:31:26.079Z,27.14
2018-06-15T14:36:29.422Z,26.19
2018-06-15T14:41:32.835Z,25.70
2018-06-15T14:46:36.379Z,24.37
2018-06-15T14:51:40.108Z,24.33
2018-06-15T14:56:43.494Z,24.52
2018-06-15T15:01:47.675Z,24.09
2018-06-15T15:06:51.206Z,23.42
2018-06-15T15:11:55.310Z,22.99
2018-06-15T15:16:58.927Z,22.66
2018-06-15T15:22:02.265Z,23.47
2018-06-15T15:27:05.608Z,25.86
2018-06-15T15:32:09.059Z,24.53
2018-06-15T15:37:18.026Z,23.83
2018-06-15T15:42:21.366Z,23.45
2018-06-15T15:47:24.699Z,24.12
2018-06-15T15:52:28.029Z,24.10
2018-06-15T15:57:31.368Z,24.80
2018-06-15T16:02:34.695Z,24.90
2018-06-15T16:07:38.071Z,23.57
2018-06-15T16:12:41.544Z,23.04
2018-06-15T16:17:45.000Z,24.77
2018-06-15T16:22:48.339Z,23.79
2018-06-15T16:27:51.822Z,23.89
2018-06-15T16:32:55.161Z,22.42
2018-06-15T16:37:58.598Z,22.94
2018-06-15T16:43:02.847Z,22.81
2018-06-15T16:48:06.277Z,22.28
2018-06-15T16:53:09.618Z,22.80
2018-06-15T16:58:12.949Z,22.40
2018-06-15T17:03:16.277Z,22.54
2018-06-15T17:13:57.127Z,22.12
2018-06-15T17:19:01.225Z,21.91
2018-06-15T17:24:04.578Z,22.15
2018-06-15T17:29:07.928Z,22.19
2018-06-15T17:34:11.294Z,22.45
2018-06-15T17:39:15.387Z,22.68
2018-06-15T17:44:18.743Z,22.81
2018-06-15T17:49:22.955Z,22.73
2018-06-15T17:54:27.113Z,23.48
2018-06-15T17:59:37.770Z,24.00
2018-06-15T18:04:41.090Z,24.04
2018-06-15T18:09:45.517Z,24.28
2018-06-15T18:14:49.630Z,24.75
2018-06-15T18:19:52.958Z,25.04
2018-06-15T18:24:56.292Z,25.39
2018-06-15T18:30:00.471Z,26.01
2018-06-15T18:35:03.840Z,25.85
2018-06-15T18:40:18.655Z,26.05
2018-06-15T18:45:21.983Z,26.42
2018-06-15T18:50:51.484Z,26.69
2018-06-15T18:55:54.821Z,27.06
2018-06-15T19:00:58.150Z,27.56
2018-06-15T19:06:02.833Z,28.00
2018-06-15T19:11:06.330Z,28.53
2018-06-15T19:16:11.077Z,29.15
2018-06-15T19:21:14.979Z,29.51
2018-06-15T19:26:18.326Z,29.93
2018-06-15T19:31:21.703Z,30.91
2018-06-15T19:36:25.049Z,31.23
2018-06-15T19:41:28.393Z,31.55
2018-06-15T19:46:32.499Z,31.66
2018-06-15T19:51:35.902Z,31.72
2018-06-15T19:56:39.560Z,31.98
2018-06-15T20:01:42.944Z,32.06
2018-06-15T20:06:46.542Z,32.78
2018-06-15T20:11:49.879Z,35.01
2018-06-15T20:16:53.219Z,35.14
2018-06-15T20:21:56.554Z,35.10
2018-06-15T20:26:59.887Z,35.47
2018-06-15T20:32:03.219Z,35.71
2018-06-15T20:37:06.582Z,35.89
2018-06-15T20:42:09.914Z,36.09
2018-06-15T20:47:13.250Z,36.82
2018-06-15T20:52:16.610Z,37.49
2018-06-15T20:57:19.938Z,37.98
2018-06-15T21:02:23.271Z,41.04
2018-06-15T21:07:27.035Z,40.62
2018-06-15T21:12:31.125Z,40.48
2018-06-15T21:17:34.650Z,40.81
2018-06-15T21:22:38.007Z,41.21
2018-06-15T21:27:42.358Z,41.39
2018-06-15T21:32:46.206Z,42.56
2018-06-15T21:37:49.583Z,42.63
2018-06-15T21:42:53.679Z,42.77
2018-06-15T21:47:57.042Z,43.10
2018-06-15T21:53:00.400Z,43.53
2018-06-15T21:58:03.731Z,43.57
2018-06-15T22:03:07.060Z,44.13
2018-06-15T22:08:11.158Z,44.51
2018-06-15T22:13:14.503Z,44.96
2018-06-15T22:18:18.607Z,45.44
2018-06-15T22:23:21.947Z,46.59
2018-06-15T22:28:26.050Z,46.02
